Time;durP1;ratioP1;P1;durP2;ratioP2;P2;SDS_P1;SDS_P2;PMS_P1;PMS_P2;Temp;Humidity;BMP_temperature;BMP_pressure;BME280_temperature;BME280_humidity;BME280_pressure;Samples;Min_cycle;Max_cycle;Signal;HPM_P1;HPM_P2
2022/06/22 00:00:38;;;;;;;;;;;15.60;99.90;;;;;;4956783;28;19926;-45
2022/06/22 00:03:05;;;;;;;;;;;15.60;99.90;;;;;;4938461;28;20391;-44
2022/06/22 00:06:00;;;;;;;;;;;15.60;99.90;;;;;;4959340;28;20005;-44
2022/06/22 00:08:27;;;;;;;;;;;15.60;99.90;;;;;;4940780;28;19977;-48
2022/06/22 00:11:03;;;;;;;;;;;15.60;99.90;;;;;;4956009;28;20266;-45
2022/06/22 00:13:30;;;;;;;;;;;15.50;99.90;;;;;;4958941;28;19945;-44
2022/06/22 00:15:58;;;;;;;;;;;15.50;99.90;;;;;;4959893;28;19968;-45
2022/06/22 00:18:34;;;;;;;;;;;15.50;99.90;;;;;;4954790;28;19932;-51
2022/06/22 00:21:01;;;;;;;;;;;15.40;99.90;;;;;;4941258;28;19961;-48
2022/06/22 00:23:28;;;;;;;;;;;15.40;99.90;;;;;;4956622;28;19962;-44
2022/06/22 00:26:04;;;;;;;;;;;15.30;99.90;;;;;;4961010;28;20080;-44
2022/06/22 00:28:31;;;;;;;;;;;15.30;99.90;;;;;;4949987;28;19957;-44
2022/06/22 00:31:03;;;;;;;;;;;15.30;99.90;;;;;;4951810;28;19919;-43
2022/06/22 00:33:29;;;;;;;;;;;15.30;99.90;;;;;;4958912;28;20017;-53
2022/06/22 00:36:00;;;;;;;;;;;15.20;99.90;;;;;;4959990;28;19949;-46
2022/06/22 00:38:28;;;;;;;;;;;15.10;99.90;;;;;;4954308;28;19934;-43
2022/06/22 00:40:56;;;;;;;;;;;15.10;99.90;;;;;;4952513;28;19970;-44
2022/06/22 00:43:24;;;;;;;;;;;15.10;99.90;;;;;;4954380;28;19930;-47
2022/06/22 00:45:50;;;;;;;;;;;15.00;99.90;;;;;;4957243;28;19926;-49
2022/06/22 00:48:21;;;;;;;;;;;15.00;99.90;;;;;;4969280;28;19929;-44
2022/06/22 00:50:52;;;;;;;;;;;15.00;99.90;;;;;;4957177;28;20395;-47
2022/06/22 00:53:41;;;;;;;;;;;15.00;99.90;;;;;;4962114;28;19918;-45
2022/06/22 00:56:10;;;;;;;;;;;15.00;99.90;;;;;;4942902;28;19927;-46
2022/06/22 00:58:52;;;;;;;;;;;14.90;99.90;;;;;;4961383;28;19926;-47
2022/06/22 01:01:21;;;;;;;;;;;14.90;99.90;;;;;;4963361;28;19918;-58
2022/06/22 01:03:56;;;;;;;;;;;14.90;99.90;;;;;;4955729;28;19965;-46
2022/06/22 01:06:32;;;;;;;;;;;14.80;99.90;;;;;;4964582;28;19922;-47
2022/06/22 01:09:02;;;;;;;;;;;14.80;99.90;;;;;;4954811;28;19973;-44
2022/06/22 01:14:26;;;;;;;;;;;14.70;99.90;;;;;;4958405;28;19922;-47
2022/06/22 01:16:53;;;;;;;;;;;14.60;99.90;;;;;;4953011;28;19992;-45
2022/06/22 01:19:25;;;;;;;;;;;14.60;99.90;;;;;;4960832;28;20004;-49
2022/06/22 01:22:10;;;;;;;;;;;14.60;99.90;;;;;;4963711;28;19962;-47
2022/06/22 01:24:48;;;;;;;;;;;14.50;99.90;;;;;;4953295;28;19996;-47
2022/06/22 01:27:22;;;;;;;;;;;14.50;99.90;;;;;;4961582;28;20013;-45
2022/06/22 01:29:53;;;;;;;;;;;14.40;99.90;;;;;;4955461;28;19961;-43
2022/06/22 01:32:29;;;;;;;;;;;14.30;99.90;;;;;;4968709;28;19994;-47
2022/06/22 01:34:56;;;;;;;;;;;14.30;99.90;;;;;;4961975;28;19921;-45
2022/06/22 01:37:24;;;;;;;;;;;14.20;99.90;;;;;;4949877;28;19926;-47
2022/06/22 01:39:49;;;;;;;;;;;14.10;99.90;;;;;;4944740;28;19933;-46
2022/06/22 01:42:30;;;;;;;;;;;14.00;99.90;;;;;;4961550;28;19919;-47
2022/06/22 01:44:59;;;;;;;;;;;13.90;99.90;;;;;;4940628;29;19983;-48
2022/06/22 01:47:24;;;;;;;;;;;13.90;99.90;;;;;;4961400;28;20016;-47
2022/06/22 01:49:50;;;;;;;;;;;13.70;99.90;;;;;;4954062;28;20001;-47
2022/06/22 01:52:34;;;;;;;;;;;13.70;99.90;;;;;;4960393;28;19948;-44
2022/06/22 01:55:04;;;;;;;;;;;13.60;99.90;;;;;;4956552;28;20009;-43
2022/06/22 01:57:42;;;;;;;;;;;13.60;99.90;;;;;;4952307;28;19973;-43
2022/06/22 02:00:13;;;;;;;;;;;13.60;99.90;;;;;;4952516;28;19973;-47
2022/06/22 02:02:47;;;;;;;;;;;13.60;99.90;;;;;;4963154;28;20367;-47
2022/06/22 02:05:26;;;;;;;;;;;13.60;99.90;;;;;;4956298;28;19918;-43
2022/06/22 02:07:56;;;;;;;;;;;13.60;99.90;;;;;;4960273;28;21962;-45
2022/06/22 02:10:28;;;;;;;;;;;13.60;99.90;;;;;;4964878;28;19988;-49
2022/06/22 02:12:53;;;;;;;;;;;13.60;99.90;;;;;;4941678;28;19929;-49
2022/06/22 02:15:23;;;;;;;;;;;13.50;99.90;;;;;;4970729;28;19918;-46
2022/06/22 02:17:50;;;;;;;;;;;13.50;99.90;;;;;;4954525;28;20450;-46
2022/06/22 02:20:18;;;;;;;;;;;13.50;99.90;;;;;;4956974;28;19929;-45
2022/06/22 02:22:48;;;;;;;;;;;13.50;99.90;;;;;;4957517;28;20004;-48
2022/06/22 02:25:14;;;;;;;;;;;13.40;99.90;;;;;;4958870;28;20371;-47
2022/06/22 02:27:40;;;;;;;;;;;13.40;99.90;;;;;;4964947;28;19933;-44
2022/06/22 02:30:06;;;;;;;;;;;13.30;99.90;;;;;;4959108;28;19944;-45
2022/06/22 02:32:33;;;;;;;;;;;13.40;99.90;;;;;;4958406;28;19926;-48
2022/06/22 02:34:59;;;;;;;;;;;13.30;99.90;;;;;;4958949;28;19918;-44
2022/06/22 02:37:26;;;;;;;;;;;13.30;99.90;;;;;;4955470;28;20383;-48
2022/06/22 02:39:53;;;;;;;;;;;13.30;99.90;;;;;;4958541;28;19926;-43
2022/06/22 02:45:06;;;;;;;;;;;13.20;99.90;;;;;;4954695;28;19922;-44
2022/06/22 02:47:43;;;;;;;;;;;13.20;99.90;;;;;;4952128;28;20033;-48
2022/06/22 02:50:11;;;;;;;;;;;13.20;99.90;;;;;;4954705;28;20348;-46
2022/06/22 02:52:39;;;;;;;;;;;13.20;99.90;;;;;;4962420;28;20268;-46
2022/06/22 02:55:05;;;;;;;;;;;13.10;99.90;;;;;;4966647;28;19937;-45
2022/06/22 02:57:37;;;;;;;;;;;13.10;99.90;;;;;;4963226;28;19932;-46
2022/06/22 03:00:04;;;;;;;;;;;13.10;99.90;;;;;;4958834;28;20017;-46
2022/06/22 03:02:29;;;;;;;;;;;13.10;99.90;;;;;;4941467;28;19981;-48
2022/06/22 03:04:57;;;;;;;;;;;13.10;99.90;;;;;;4959240;28;19922;-48
2022/06/22 03:07:22;;;;;;;;;;;13.10;99.90;;;;;;4966818;28;20389;-45
2022/06/22 03:09:48;;;;;;;;;;;13.10;99.90;;;;;;4957146;28;19980;-44
2022/06/22 03:12:14;;;;;;;;;;;13.00;99.90;;;;;;4964013;28;19922;-45
2022/06/22 03:14:47;;;;;;;;;;;13.00;99.90;;;;;;4963877;28;20000;-46
2022/06/22 03:17:14;;;;;;;;;;;13.10;99.90;;;;;;4954982;28;20299;-49
2022/06/22 03:19:51;;;;;;;;;;;13.00;99.90;;;;;;4958368;28;20506;-48
2022/06/22 03:22:23;;;;;;;;;;;13.00;99.90;;;;;;4955004;28;20017;-48
2022/06/22 03:24:52;;;;;;;;;;;12.90;99.90;;;;;;4966186;28;19944;-43
2022/06/22 03:27:20;;;;;;;;;;;12.90;99.90;;;;;;4956724;28;19946;-46
2022/06/22 03:29:48;;;;;;;;;;;12.90;99.90;;;;;;4960732;28;20004;-50
2022/06/22 03:32:43;;;;;;;;;;;12.80;99.90;;;;;;4962733;28;19953;-45
2022/06/22 03:35:14;;;;;;;;;;;12.80;99.90;;;;;;4944992;28;19918;-43
2022/06/22 03:37:49;;;;;;;;;;;12.80;99.90;;;;;;4960126;28;20379;-44
2022/06/22 03:40:24;;;;;;;;;;;12.80;99.90;;;;;;4949086;28;19919;-46
2022/06/22 03:42:55;;;;;;;;;;;12.80;99.90;;;;;;4957500;28;19925;-46
2022/06/22 03:45:27;;;;;;;;;;;12.70;99.90;;;;;;4963489;28;19925;-46
2022/06/22 03:47:59;;;;;;;;;;;12.70;99.90;;;;;;4945739;28;20346;-46
2022/06/22 03:50:24;;;;;;;;;;;12.70;99.90;;;;;;4956624;28;19918;-46
2022/06/22 03:52:58;;;;;;;;;;;12.60;99.90;;;;;;4954484;28;19928;-44
2022/06/22 03:55:27;;;;;;;;;;;12.70;99.90;;;;;;4966770;28;20394;-44
2022/06/22 03:57:54;;;;;;;;;;;12.70;99.90;;;;;;4954608;28;19937;-46
2022/06/22 04:00:20;;;;;;;;;;;12.70;99.90;;;;;;4955366;28;20423;-44
2022/06/22 04:02:45;;;;;;;;;;;12.70;99.90;;;;;;4963304;28;19922;-45
2022/06/22 04:05:16;;;;;;;;;;;12.80;99.90;;;;;;4959565;28;20374;-44
2022/06/22 04:07:42;;;;;;;;;;;12.80;99.90;;;;;;4949352;28;20442;-44
2022/06/22 04:10:16;;;;;;;;;;;12.80;99.90;;;;;;4961063;28;19922;-43
2022/06/22 04:12:44;;;;;;;;;;;12.80;99.90;;;;;;4952491;28;19926;-47
2022/06/22 04:15:19;;;;;;;;;;;12.80;99.90;;;;;;4960966;28;20374;-47
2022/06/22 04:17:48;;;;;;;;;;;12.80;99.90;;;;;;4952778;28;19922;-48
2022/06/22 04:20:19;;;;;;;;;;;12.80;99.90;;;;;;4957144;28;19919;-45
2022/06/22 04:22:48;;;;;;;;;;;12.90;99.90;;;;;;4958082;28;19966;-44
2022/06/22 04:25:26;;;;;;;;;;;12.90;99.90;;;;;;4954825;28;20017;-48
2022/06/22 04:27:52;;;;;;;;;;;13.00;99.90;;;;;;4950030;28;19922;-45
2022/06/22 04:30:20;;;;;;;;;;;13.00;99.90;;;;;;4956739;28;19922;-46
2022/06/22 04:32:51;;;;;;;;;;;13.10;99.90;;;;;;4949472;28;20009;-45
2022/06/22 04:35:22;;;;;;;;;;;13.10;99.90;;;;;;4962665;28;20351;-47
2022/06/22 04:38:01;;;;;;;;;;;13.20;99.90;;;;;;4950416;28;20320;-45
2022/06/22 04:40:35;;;;;;;;;;;13.20;99.90;;;;;;4958092;28;20362;-43
2022/06/22 04:43:02;;;;;;;;;;;13.20;99.90;;;;;;4962231;28;20006;-48
2022/06/22 04:45:29;;;;;;;;;;;13.20;99.90;;;;;;4947831;28;19918;-48
2022/06/22 04:48:01;;;;;;;;;;;13.20;99.90;;;;;;4952251;28;19929;-47
2022/06/22 04:50:26;;;;;;;;;;;13.30;99.90;;;;;;4957819;28;19922;-45
2022/06/22 04:52:55;;;;;;;;;;;13.40;99.90;;;;;;4955143;28;19933;-48
2022/06/22 04:55:25;;;;;;;;;;;13.40;99.90;;;;;;4955003;28;20001;-47
2022/06/22 04:57:54;;;;;;;;;;;13.50;99.90;;;;;;4957228;28;19981;-45
2022/06/22 05:00:22;;;;;;;;;;;13.50;99.90;;;;;;4953397;28;19919;-47
2022/06/22 05:02:49;;;;;;;;;;;13.60;99.90;;;;;;4940058;28;19926;-44
2022/06/22 05:05:20;;;;;;;;;;;13.60;99.90;;;;;;4963119;28;20260;-47
2022/06/22 05:07:45;;;;;;;;;;;13.70;99.90;;;;;;4959871;28;19918;-47
2022/06/22 05:10:30;;;;;;;;;;;13.80;99.90;;;;;;4961455;28;19922;-45
2022/06/22 05:12:58;;;;;;;;;;;13.80;99.90;;;;;;4957285;28;20375;-44
2022/06/22 05:15:26;;;;;;;;;;;13.90;99.90;;;;;;4961726;28;19928;-45
2022/06/22 05:17:52;;;;;;;;;;;14.00;99.90;;;;;;4955997;28;20386;-48
2022/06/22 05:20:41;;;;;;;;;;;14.00;99.90;;;;;;4956532;28;19953;-46
2022/06/22 05:23:07;;;;;;;;;;;14.10;99.90;;;;;;4948574;28;20394;-45
2022/06/22 05:25:33;;;;;;;;;;;14.20;99.90;;;;;;4955520;28;19926;-44
2022/06/22 05:28:06;;;;;;;;;;;14.30;99.90;;;;;;4953863;28;19981;-48
2022/06/22 05:30:37;;;;;;;;;;;14.30;99.90;;;;;;4959958;28;20416;-47
2022/06/22 05:33:06;;;;;;;;;;;14.40;99.90;;;;;;4950339;28;20414;-45
2022/06/22 05:35:33;;;;;;;;;;;14.50;99.90;;;;;;4950434;28;20319;-49
2022/06/22 05:38:00;;;;;;;;;;;14.60;99.90;;;;;;4960490;28;19962;-44
2022/06/22 05:40:27;;;;;;;;;;;14.60;99.90;;;;;;4962640;28;19945;-44
2022/06/22 05:42:54;;;;;;;;;;;14.80;99.90;;;;;;4951930;28;20005;-45
2022/06/22 05:45:22;;;;;;;;;;;14.80;99.90;;;;;;4951563;28;19924;-46
2022/06/22 05:47:48;;;;;;;;;;;14.90;99.90;;;;;;4956671;28;20340;-43
2022/06/22 05:50:27;;;;;;;;;;;15.00;99.90;;;;;;4961324;28;20001;-45
2022/06/22 05:52:59;;;;;;;;;;;15.00;99.90;;;;;;4958820;28;20335;-45
2022/06/22 05:55:32;;;;;;;;;;;15.10;99.90;;;;;;4960239;28;20338;-44
2022/06/22 05:58:00;;;;;;;;;;;15.20;99.90;;;;;;4957388;28;19985;-47
2022/06/22 06:00:36;;;;;;;;;;;15.30;99.90;;;;;;4962854;28;20445;-45
2022/06/22 06:03:01;;;;;;;;;;;15.40;99.90;;;;;;4957171;28;19980;-47
2022/06/22 06:05:29;;;;;;;;;;;15.40;99.90;;;;;;4962907;28;20398;-49
2022/06/22 06:07:57;;;;;;;;;;;15.50;99.90;;;;;;4961330;28;19922;-45
2022/06/22 06:10:25;;;;;;;;;;;15.60;99.90;;;;;;4949609;28;19997;-45
2022/06/22 06:13:04;;;;;;;;;;;15.60;99.90;;;;;;4952744;28;19926;-43
2022/06/22 06:15:33;;;;;;;;;;;15.90;99.90;;;;;;4933416;28;19937;-48
2022/06/22 06:17:59;;;;;;;;;;;16.30;99.90;;;;;;4950142;28;20459;-48
2022/06/22 06:20:31;;;;;;;;;;;16.60;99.90;;;;;;4954372;28;19917;-49
2022/06/22 06:23:02;;;;;;;;;;;16.80;99.70;;;;;;4956474;28;20342;-47
2022/06/22 06:28:47;;;;;;;;;;;17.50;96.20;;;;;;4952252;28;19929;-51
2022/06/22 06:31:19;;;;;;;;;;;17.70;95.20;;;;;;4901277;29;19922;-50
2022/06/22 06:33:44;;;;;;;;;;;17.90;94.90;;;;;;4957285;28;20422;-50
2022/06/22 06:36:24;;;;;;;;;;;18.10;94.50;;;;;;4934021;28;20061;-50
2022/06/22 06:38:59;;;;;;;;;;;18.20;95.10;;;;;;4954885;28;20351;-51
2022/06/22 06:41:36;;;;;;;;;;;18.30;93.10;;;;;;4954593;28;19941;-50
2022/06/22 06:44:04;;;;;;;;;;;18.40;95.80;;;;;;4951271;28;19926;-46
2022/06/22 06:46:29;;;;;;;;;;;18.40;93.40;;;;;;4955123;28;19988;-48
2022/06/22 06:48:58;;;;;;;;;;;18.60;93.60;;;;;;4930278;28;19973;-51
2022/06/22 06:51:25;;;;;;;;;;;18.60;92.70;;;;;;4948065;28;20324;-50
2022/06/22 06:53:54;;;;;;;;;;;18.70;92.50;;;;;;4939189;28;19925;-50
2022/06/22 06:56:23;;;;;;;;;;;18.70;93.50;;;;;;4952284;28;20379;-50
2022/06/22 06:58:51;;;;;;;;;;;18.90;92.70;;;;;;4954451;28;19954;-48
2022/06/22 07:01:24;;;;;;;;;;;18.90;93.10;;;;;;4950440;28;19918;-48
2022/06/22 07:03:51;;;;;;;;;;;18.90;93.90;;;;;;4950059;28;19922;-47
2022/06/22 07:06:17;;;;;;;;;;;18.80;94.30;;;;;;4937012;29;19926;-48
2022/06/22 07:08:53;;;;;;;;;;;18.90;93.10;;;;;;4955601;28;19926;-48
2022/06/22 07:11:19;;;;;;;;;;;19.00;92.70;;;;;;4951975;28;19932;-46
2022/06/22 07:13:49;;;;;;;;;;;19.10;91.90;;;;;;4951963;28;19919;-49
2022/06/22 07:16:19;;;;;;;;;;;19.20;92.00;;;;;;4948250;28;19922;-49
2022/06/22 07:18:51;;;;;;;;;;;19.40;90.30;;;;;;4952425;28;20323;-51
2022/06/22 07:21:26;;;;;;;;;;;19.60;90.00;;;;;;4949917;28;19925;-49
2022/06/22 07:23:58;;;;;;;;;;;19.70;90.40;;;;;;4950999;28;19992;-48
2022/06/22 07:26:26;;;;;;;;;;;19.80;90.40;;;;;;4951955;28;19977;-47
2022/06/22 07:28:55;;;;;;;;;;;19.90;90.00;;;;;;4950108;28;19918;-50
2022/06/22 07:31:26;;;;;;;;;;;19.90;89.40;;;;;;4942766;28;19972;-47
2022/06/22 07:33:55;;;;;;;;;;;19.80;89.20;;;;;;4947775;28;19974;-50
2022/06/22 07:36:21;;;;;;;;;;;19.80;90.10;;;;;;4949349;28;19944;-48
2022/06/22 07:38:55;;;;;;;;;;;19.80;90.10;;;;;;4951513;28;20460;-50
2022/06/22 07:41:24;;;;;;;;;;;19.80;90.30;;;;;;4944089;28;19918;-48
2022/06/22 07:43:55;;;;;;;;;;;19.90;90.10;;;;;;4950926;28;19973;-46
2022/06/22 07:46:28;;;;;;;;;;;20.00;89.60;;;;;;4949227;28;19918;-45
2022/06/22 07:48:57;;;;;;;;;;;20.00;89.40;;;;;;4940657;28;21509;-48
2022/06/22 07:51:28;;;;;;;;;;;20.00;88.30;;;;;;4953314;28;19932;-49
2022/06/22 07:53:57;;;;;;;;;;;20.20;88.10;;;;;;4948304;28;20132;-49
2022/06/22 07:56:22;;;;;;;;;;;20.20;89.30;;;;;;4954069;28;19930;-48
2022/06/22 07:58:56;;;;;;;;;;;20.20;87.40;;;;;;4950722;28;19925;-49
2022/06/22 08:01:25;;;;;;;;;;;20.30;87.90;;;;;;4953472;28;19917;-47
2022/06/22 08:04:14;;;;;;;;;;;20.40;87.20;;;;;;4955046;28;19926;-50
2022/06/22 08:06:44;;;;;;;;;;;20.40;85.70;;;;;;4940310;28;19929;-50
2022/06/22 08:09:21;;;;;;;;;;;20.40;84.40;;;;;;4951258;28;19926;-49
2022/06/22 08:11:55;;;;;;;;;;;20.50;83.90;;;;;;4949297;28;19949;-49
2022/06/22 08:14:34;;;;;;;;;;;20.50;83.10;;;;;;4951723;28;19918;-47
2022/06/22 08:17:01;;;;;;;;;;;20.50;81.90;;;;;;4947554;28;19925;-47
2022/06/22 08:19:28;;;;;;;;;;;20.60;81.80;;;;;;4957160;28;20011;-49
2022/06/22 08:21:58;;;;;;;;;;;20.60;81.30;;;;;;4957450;28;19972;-49
2022/06/22 08:24:23;;;;;;;;;;;20.60;82.80;;;;;;4956549;28;19985;-50
2022/06/22 08:26:50;;;;;;;;;;;20.70;82.80;;;;;;4952795;28;19929;-51
2022/06/22 08:29:16;;;;;;;;;;;20.90;81.90;;;;;;4949431;28;20001;-47
2022/06/22 08:31:45;;;;;;;;;;;20.90;79.60;;;;;;4954609;28;20005;-50
2022/06/22 08:34:15;;;;;;;;;;;20.90;80.30;;;;;;4949985;28;20045;-48
2022/06/22 08:36:44;;;;;;;;;;;20.90;79.30;;;;;;4932967;29;20013;-46
2022/06/22 08:39:17;;;;;;;;;;;21.00;77.70;;;;;;4953131;28;19926;-47
2022/06/22 08:41:45;;;;;;;;;;;21.10;77.30;;;;;;4949935;28;19929;-48
2022/06/22 08:44:17;;;;;;;;;;;21.10;74.60;;;;;;4955897;28;19918;-45
2022/06/22 08:46:42;;;;;;;;;;;21.10;72.00;;;;;;4950455;28;20055;-48
2022/06/22 08:49:10;;;;;;;;;;;21.10;70.70;;;;;;4951499;28;20068;-48
2022/06/22 08:51:54;;;;;;;;;;;21.10;70.10;;;;;;4947615;28;19919;-42
2022/06/22 08:54:23;;;;;;;;;;;21.10;69.40;;;;;;4944133;28;19929;-49
2022/06/22 08:56:58;;;;;;;;;;;21.20;69.50;;;;;;4946460;29;20075;-45
2022/06/22 08:59:26;;;;;;;;;;;21.20;67.20;;;;;;4943220;28;19993;-49
2022/06/22 09:02:06;;;;;;;;;;;21.20;66.80;;;;;;4950083;28;20371;-48
2022/06/22 09:04:31;;;;;;;;;;;21.30;64.20;;;;;;4944474;28;20405;-48
2022/06/22 09:06:57;;;;;;;;;;;21.30;65.20;;;;;;4955103;28;19957;-44
2022/06/22 09:09:42;;;;;;;;;;;21.40;66.60;;;;;;4954196;28;19922;-50
2022/06/22 09:12:17;;;;;;;;;;;21.50;58.70;;;;;;4952669;28;20040;-44
2022/06/22 09:14:43;;;;;;;;;;;21.60;64.00;;;;;;4957964;28;19945;-44
2022/06/22 09:17:17;;;;;;;;;;;21.80;57.60;;;;;;4953739;28;19926;-46
2022/06/22 09:19:49;;;;;;;;;;;21.90;56.30;;;;;;4939620;29;19929;-49
2022/06/22 09:22:23;;;;;;;;;;;22.10;60.50;;;;;;4956846;28;19929;-48
2022/06/22 09:24:58;;;;;;;;;;;22.20;57.70;;;;;;4953011;28;20375;-45
2022/06/22 09:27:44;;;;;;;;;;;22.40;56.10;;;;;;4949192;28;19926;-49
2022/06/22 09:30:09;;;;;;;;;;;22.50;54.90;;;;;;4950673;28;19918;-44
2022/06/22 09:32:53;;;;;;;;;;;22.40;51.70;;;;;;4960416;28;19922;-43
2022/06/22 09:35:21;;;;;;;;;;;22.50;52.30;;;;;;4953360;28;20355;-48
2022/06/22 09:37:53;;;;;;;;;;;22.70;52.40;;;;;;4954933;28;19922;-48
2022/06/22 09:40:18;;;;;;;;;;;22.70;50.40;;;;;;4952789;28;20491;-46
2022/06/22 09:43:00;;;;;;;;;;;22.80;50.30;;;;;;4959180;28;19972;-45
2022/06/22 09:45:32;;;;;;;;;;;22.80;48.80;;;;;;4952017;28;20008;-48
2022/06/22 09:48:08;;;;;;;;;;;22.90;49.10;;;;;;4950729;28;20374;-50
2022/06/22 09:50:52;;;;;;;;;;;23.00;49.30;;;;;;4951723;28;19926;-45
2022/06/22 09:53:33;;;;;;;;;;;22.90;49.20;;;;;;4949643;28;19997;-47
2022/06/22 09:56:27;;;;;;;;;;;23.00;49.10;;;;;;4945252;28;20457;-49
2022/06/22 09:59:04;;;;;;;;;;;23.00;47.70;;;;;;4962896;28;19930;-48
2022/06/22 10:01:50;;;;;;;;;;;23.00;45.60;;;;;;4956730;28;19930;-50
2022/06/22 10:04:25;;;;;;;;;;;23.10;46.90;;;;;;4952006;28;19918;-49
2022/06/22 10:07:00;;;;;;;;;;;23.20;46.60;;;;;;4935432;29;20327;-46
2022/06/22 10:09:46;;;;;;;;;;;23.30;45.70;;;;;;4945839;28;19918;-47
2022/06/22 10:12:32;;;;;;;;;;;23.40;45.90;;;;;;4931363;28;20319;-50
2022/06/22 10:15:07;;;;;;;;;;;23.50;46.60;;;;;;4939825;28;20371;-51
2022/06/22 10:17:40;;;;;;;;;;;23.60;44.80;;;;;;4951141;28;20394;-50
2022/06/22 10:20:21;;;;;;;;;;;23.70;45.10;;;;;;4952552;28;19993;-47
2022/06/22 10:22:52;;;;;;;;;;;23.80;43.90;;;;;;4953947;28;19918;-50
2022/06/22 10:25:21;;;;;;;;;;;23.90;43.40;;;;;;4938122;29;20013;-45
2022/06/22 10:27:46;;;;;;;;;;;24.00;42.00;;;;;;4948332;28;19918;-48
2022/06/22 10:30:30;;;;;;;;;;;24.20;44.10;;;;;;4946765;28;20017;-45
2022/06/22 10:33:15;;;;;;;;;;;24.20;42.60;;;;;;4950457;28;19923;-45
2022/06/22 10:35:57;;;;;;;;;;;24.30;41.40;;;;;;4956263;28;20326;-48
2022/06/22 10:38:41;;;;;;;;;;;24.30;43.60;;;;;;4958100;28;19926;-46
2022/06/22 10:47:24;;;;;;;;;;;24.50;38.40;;;;;;4949330;28;19926;-49
2022/06/22 10:49:49;;;;;;;;;;;24.50;37.90;;;;;;4952256;29;19926;-44
2022/06/22 10:52:30;;;;;;;;;;;24.50;36.70;;;;;;4956413;28;19922;-43
2022/06/22 10:54:59;;;;;;;;;;;24.50;37.90;;;;;;4950809;28;20447;-45
2022/06/22 10:57:31;;;;;;;;;;;24.50;40.00;;;;;;4952162;28;20001;-44
2022/06/22 11:00:09;;;;;;;;;;;24.60;37.70;;;;;;4957088;28;19929;-48
2022/06/22 11:02:57;;;;;;;;;;;24.60;37.50;;;;;;4948705;28;19925;-48
2022/06/22 11:05:36;;;;;;;;;;;24.70;39.80;;;;;;4950830;28;20379;-51
2022/06/22 11:08:05;;;;;;;;;;;24.80;38.30;;;;;;4953828;28;19918;-45
2022/06/22 11:10:48;;;;;;;;;;;24.90;38.60;;;;;;4952740;28;19973;-50
2022/06/22 11:13:25;;;;;;;;;;;25.10;38.60;;;;;;4951826;28;20359;-48
2022/06/22 11:16:04;;;;;;;;;;;25.20;38.20;;;;;;4946276;28;20276;-49
2022/06/22 11:18:31;;;;;;;;;;;25.30;38.50;;;;;;4951145;28;20008;-49
2022/06/22 11:20:59;;;;;;;;;;;25.30;35.50;;;;;;4950766;28;19925;-51
2022/06/22 11:23:34;;;;;;;;;;;25.30;39.10;;;;;;4951783;28;19922;-48
2022/06/22 11:31:52;;;;;;;;;;;25.40;35.90;;;;;;4948500;28;20414;-43
2022/06/22 11:34:24;;;;;;;;;;;25.40;36.70;;;;;;4934519;28;20009;-47
2022/06/22 11:37:01;;;;;;;;;;;25.40;36.30;;;;;;4938115;28;19933;-48
2022/06/22 11:39:30;;;;;;;;;;;25.30;37.90;;;;;;4930501;29;19923;-45
2022/06/22 11:41:58;;;;;;;;;;;25.40;38.30;;;;;;4930802;29;20241;-49
2022/06/22 11:44:43;;;;;;;;;;;25.50;38.40;;;;;;4952138;28;20308;-49
2022/06/22 11:47:14;;;;;;;;;;;25.60;37.60;;;;;;4950891;28;20027;-49
2022/06/22 11:50:06;;;;;;;;;;;25.70;37.30;;;;;;4951094;28;19922;-47
2022/06/22 11:52:31;;;;;;;;;;;25.80;37.60;;;;;;4951856;28;20237;-47
2022/06/22 11:55:16;;;;;;;;;;;25.90;38.20;;;;;;4951475;28;19922;-48
2022/06/22 11:58:00;;;;;;;;;;;25.90;36.80;;;;;;4948391;28;20307;-48
2022/06/22 12:00:48;;;;;;;;;;;26.00;37.80;;;;;;4951952;28;19927;-48
2022/06/22 12:03:19;;;;;;;;;;;26.10;38.80;;;;;;4953091;28;19922;-46
2022/06/22 12:06:04;;;;;;;;;;;26.10;36.70;;;;;;4950056;28;19922;-50
2022/06/22 12:08:50;;;;;;;;;;;26.20;37.80;;;;;;4953988;28;20425;-47
2022/06/22 12:11:15;;;;;;;;;;;26.30;37.30;;;;;;4956691;28;19926;-51
2022/06/22 12:16:38;;;;;;;;;;;26.50;36.20;;;;;;4946635;28;19938;-51
2022/06/22 12:19:18;;;;;;;;;;;26.70;36.20;;;;;;4928193;29;20387;-49
2022/06/22 12:22:05;;;;;;;;;;;26.80;37.10;;;;;;4916066;29;19919;-50
2022/06/22 12:24:48;;;;;;;;;;;26.90;36.50;;;;;;4929046;29;19930;-49
2022/06/22 12:27:34;;;;;;;;;;;27.00;35.60;;;;;;4915521;29;19966;-48
2022/06/22 12:30:05;;;;;;;;;;;27.20;36.50;;;;;;4929719;29;19959;-50
2022/06/22 12:33:10;;;;;;;;;;;27.20;36.20;;;;;;4935830;29;20307;-47
2022/06/22 12:35:55;;;;;;;;;;;27.10;35.90;;;;;;4876212;29;19931;-49
2022/06/22 12:38:44;;;;;;;;;;;27.10;34.50;;;;;;4894272;29;20372;-49
2022/06/22 12:41:28;;;;;;;;;;;27.10;33.00;;;;;;4919678;29;19923;-50
2022/06/22 12:44:00;;;;;;;;;;;27.30;34.40;;;;;;4929809;29;20014;-48
2022/06/22 12:46:52;;;;;;;;;;;27.40;35.40;;;;;;4938431;29;20387;-45
2022/06/22 12:49:34;;;;;;;;;;;27.60;34.30;;;;;;4932538;29;19973;-50
2022/06/22 12:52:20;;;;;;;;;;;27.80;33.90;;;;;;4936891;29;19927;-49
2022/06/22 12:54:56;;;;;;;;;;;27.80;33.60;;;;;;4928230;29;20383;-48
2022/06/22 12:57:27;;;;;;;;;;;27.80;33.40;;;;;;4936729;29;20008;-47
2022/06/22 12:59:59;;;;;;;;;;;27.90;32.70;;;;;;4938208;29;19922;-52
2022/06/22 13:02:28;;;;;;;;;;;27.90;32.20;;;;;;4939135;29;19918;-49
2022/06/22 13:04:57;;;;;;;;;;;27.80;32.20;;;;;;4921985;29;20391;-50
2022/06/22 13:07:22;;;;;;;;;;;27.70;30.80;;;;;;4913692;29;19922;-52
2022/06/22 13:09:48;;;;;;;;;;;27.60;31.50;;;;;;4939566;29;19923;-49
2022/06/22 13:12:31;;;;;;;;;;;27.60;32.80;;;;;;4939568;29;19923;-50
2022/06/22 13:15:01;;;;;;;;;;;27.50;32.80;;;;;;4938258;29;20037;-50
2022/06/22 13:17:35;;;;;;;;;;;27.60;34.30;;;;;;4945224;28;20291;-48
2022/06/22 13:20:06;;;;;;;;;;;27.50;33.20;;;;;;4952784;28;19922;-49
2022/06/22 13:22:37;;;;;;;;;;;27.50;32.50;;;;;;4958603;28;19973;-50
2022/06/22 13:25:09;;;;;;;;;;;27.80;34.00;;;;;;4955119;28;19929;-44
2022/06/22 13:28:00;;;;;;;;;;;28.00;34.90;;;;;;4952833;28;19927;-48
2022/06/22 13:30:36;;;;;;;;;;;28.00;34.00;;;;;;4950815;28;19977;-45
2022/06/22 13:33:07;;;;;;;;;;;28.10;33.70;;;;;;4952773;28;20343;-51
2022/06/22 13:35:39;;;;;;;;;;;28.20;34.20;;;;;;4959186;28;19946;-47
2022/06/22 13:38:10;;;;;;;;;;;28.30;33.00;;;;;;4954278;28;19922;-47
2022/06/22 13:40:39;;;;;;;;;;;28.40;32.20;;;;;;4952810;28;19969;-46
2022/06/22 13:43:04;;;;;;;;;;;28.70;32.40;;;;;;4957391;28;19929;-50
2022/06/22 13:45:36;;;;;;;;;;;28.80;32.00;;;;;;4962323;28;20283;-46
2022/06/22 13:48:01;;;;;;;;;;;28.90;32.20;;;;;;4954562;28;19960;-45
2022/06/22 13:51:09;;;;;;;;;;;28.90;30.90;;;;;;4959577;28;19922;-49
2022/06/22 13:53:58;;;;;;;;;;;28.90;32.10;;;;;;4859310;29;19927;-50
2022/06/22 13:56:24;;;;;;;;;;;28.80;31.90;;;;;;4950110;28;19918;-48
2022/06/22 13:58:53;;;;;;;;;;;28.80;30.50;;;;;;4950629;28;19918;-49
2022/06/22 14:01:22;;;;;;;;;;;28.80;32.60;;;;;;4950795;28;19949;-52
2022/06/22 14:03:50;;;;;;;;;;;29.00;31.90;;;;;;4951240;28;19934;-56
2022/06/22 14:06:38;;;;;;;;;;;29.30;31.80;;;;;;4952281;28;20376;-47
2022/06/22 14:09:03;;;;;;;;;;;29.40;31.00;;;;;;4952822;28;20314;-47
2022/06/22 14:11:32;;;;;;;;;;;29.60;31.20;;;;;;4946705;28;19984;-51
2022/06/22 14:14:03;;;;;;;;;;;29.70;30.50;;;;;;4948194;28;19926;-49
2022/06/22 14:16:33;;;;;;;;;;;29.90;30.70;;;;;;4949054;28;19918;-50
2022/06/22 14:19:06;;;;;;;;;;;30.20;29.90;;;;;;4964865;28;19922;-46
2022/06/22 14:21:32;;;;;;;;;;;30.50;30.10;;;;;;4954468;28;19929;-50
2022/06/22 14:23:58;;;;;;;;;;;30.90;29.50;;;;;;4916150;28;20290;-46
2022/06/22 14:26:24;;;;;;;;;;;31.40;29.10;;;;;;4952258;28;20379;-48
2022/06/22 14:28:56;;;;;;;;;;;31.90;28.60;;;;;;4935451;29;19926;-46
2022/06/22 14:31:32;;;;;;;;;;;32.40;28.20;;;;;;4936423;28;19923;-47
2022/06/22 14:34:04;;;;;;;;;;;32.70;27.80;;;;;;4953120;28;19922;-48
2022/06/22 14:36:45;;;;;;;;;;;32.90;27.20;;;;;;4954613;28;19918;-49
2022/06/22 14:39:29;;;;;;;;;;;32.80;28.00;;;;;;4951393;28;19922;-49
2022/06/22 14:42:03;;;;;;;;;;;33.00;27.80;;;;;;4942740;28;19926;-47
2022/06/22 14:44:48;;;;;;;;;;;33.60;27.40;;;;;;4953951;28;19926;-48
2022/06/22 14:47:49;;;;;;;;;;;34.00;27.00;;;;;;4950379;28;19922;-47
2022/06/22 14:50:14;;;;;;;;;;;34.50;26.30;;;;;;4907588;29;19938;-46
2022/06/22 14:52:40;;;;;;;;;;;35.00;26.20;;;;;;4926447;29;20301;-50
2022/06/22 14:55:25;;;;;;;;;;;35.20;26.00;;;;;;4953688;28;19926;-45
2022/06/22 14:58:04;;;;;;;;;;;35.40;26.00;;;;;;4952918;28;20315;-42
2022/06/22 15:00:29;;;;;;;;;;;35.60;25.80;;;;;;4955602;28;20252;-45
2022/06/22 15:03:01;;;;;;;;;;;36.00;25.10;;;;;;4954557;28;19925;-47
2022/06/22 15:05:29;;;;;;;;;;;36.30;24.90;;;;;;4957570;28;19922;-45
2022/06/22 15:08:09;;;;;;;;;;;36.40;24.20;;;;;;4952748;28;20021;-47
2022/06/22 15:10:38;;;;;;;;;;;36.60;24.40;;;;;;4950453;28;19922;-47